Neligh, NE

2:59 PM CST on February 01, 2015 (GMT -0600)
KNENELIG1 | Change Station
CLOSE
Current Station
Personal Weather Station
Location: Neligh, NE
Elevation: 1750 ft
Nearby Weather Stations
Active Advisory: Winter Weather Advisory Active Notice: Record Report, Local Storm Report

Elev 1750 ft 42.13 °N, 98.03 °W | Updated 3 minutes ago

Snow
Snow
7.1 °F
Feels Like -2 °F
N
5.0
Wind Variable Wind from NW
Gusts 15.0 mph

Today
High -- | Low -- °F
--% Chance of Precip.
Yesterday
High -- | Low -- °F
Precip. -- in
7:45 AM 5:46 PM
Waxing Gibbous, 96% visible
Pressure 30.21 in
Visibility 1.2 miles
Clouds Overcast 1100 ft
Windchill -2 °F
Dew Point 3 °F
Humidity 84%
Rainfall -999.00 in
Snow Depth Not available.
UV 1 out of 12
Pollen .10 out of 12
Air Quality Not available.
Flu Activity Not available.
METAR KBVN 012035Z AUTO 33026G33KT 1 1/4SM -SN OVC011 M14/M18 A3021 RMK AO2 T11411180

More Conditions Fewer Conditions

Pressure 30.21 in
Visibility 1.2 miles
Clouds Overcast 1100 ft
Windchill -2 °F
Dew Point 3 °F
Humidity 84%
Rainfall -999.00 in
Snow Depth Not available.
UV 1 out of 12
Pollen .10 out of 12
Air Quality Not available.
Flu Activity Not available.
METAR KBVN 012035Z AUTO 33026G33KT 1 1/4SM -SN OVC011 M14/M18 A3021 RMK AO2 T11411180

More Conditions Fewer Conditions

10-Day Weather Forecast

Almanac

Astronomy

Feb. 01, 2015 Rise Set
Actual Time
Civil Twilight
Nautical Twilight
Astronomical Twilight
Moon
Length of Visible Light
Length of Day
Tomorrow will be .
, % of the Moon is Illuminated

Today's Extremes

State Highs State Lows

Community

WunderPhotos

Upload Photos

1,792,514 photos uploaded!

WunderBlogs® & News

Nearby

Air Quality

  Air Quality AQ Index Pollutant
Not available.

Snow Depth

Station Depth Elevation

Earthquake Activity

City Distance Mag. Time & Date
Minimum magnitude displayed is 2.5.

Coastal Water Temperatures

Place Temperature

Nearby Weather Stations